sensor_id;sensor_type;location;lat;lon;timestamp;P1;durP1;ratioP1;P2;durP2;ratioP2
15295;SDS011;7749;49.964;7.890;2023-03-20T00:02:21;7.83;;;7.13;;
15295;SDS011;7749;49.964;7.890;2023-03-20T00:04:49;8.03;;;7.07;;
15295;SDS011;7749;49.964;7.890;2023-03-20T00:07:17;7.30;;;6.20;;
15295;SDS011;7749;49.964;7.890;2023-03-20T00:09:45;7.47;;;6.13;;
15295;SDS011;7749;49.964;7.890;2023-03-20T00:12:14;8.57;;;6.03;;
15295;SDS011;7749;49.964;7.890;2023-03-20T00:14:48;7.37;;;6.57;;
15295;SDS011;7749;49.964;7.890;2023-03-20T00:17:18;5.90;;;5.30;;
15295;SDS011;7749;49.964;7.890;2023-03-20T00:19:47;7.53;;;6.23;;
15295;SDS011;7749;49.964;7.890;2023-03-20T00:22:17;5.93;;;5.33;;
15295;SDS011;7749;49.964;7.890;2023-03-20T00:24:45;6.80;;;6.20;;
15295;SDS011;7749;49.964;7.890;2023-03-20T00:27:14;8.10;;;7.30;;
15295;SDS011;7749;49.964;7.890;2023-03-20T00:29:42;7.80;;;7.10;;
15295;SDS011;7749;49.964;7.890;2023-03-20T00:32:15;7.47;;;6.70;;
15295;SDS011;7749;49.964;7.890;2023-03-20T00:34:44;7.03;;;6.43;;
15295;SDS011;7749;49.964;7.890;2023-03-20T00:37:12;8.67;;;7.67;;
15295;SDS011;7749;49.964;7.890;2023-03-20T00:39:40;9.10;;;8.03;;
15295;SDS011;7749;49.964;7.890;2023-03-20T00:42:10;7.60;;;6.90;;
15295;SDS011;7749;49.964;7.890;2023-03-20T00:44:51;7.93;;;7.10;;
15295;SDS011;7749;49.964;7.890;2023-03-20T00:47:21;8.37;;;6.03;;
15295;SDS011;7749;49.964;7.890;2023-03-20T00:49:50;6.97;;;6.27;;
15295;SDS011;7749;49.964;7.890;2023-03-20T00:52:20;7.57;;;6.43;;
15295;SDS011;7749;49.964;7.890;2023-03-20T00:54:49;6.33;;;5.73;;
15295;SDS011;7749;49.964;7.890;2023-03-20T00:57:27;6.57;;;5.20;;
15295;SDS011;7749;49.964;7.890;2023-03-20T01:00:00;6.37;;;5.43;;
15295;SDS011;7749;49.964;7.890;2023-03-20T01:02:31;5.33;;;4.77;;
15295;SDS011;7749;49.964;7.890;2023-03-20T01:04:59;6.17;;;5.57;;
15295;SDS011;7749;49.964;7.890;2023-03-20T01:07:28;6.97;;;6.23;;
15295;SDS011;7749;49.964;7.890;2023-03-20T01:09:55;6.93;;;6.27;;
15295;SDS011;7749;49.964;7.890;2023-03-20T01:12:26;7.40;;;6.70;;
15295;SDS011;7749;49.964;7.890;2023-03-20T01:14:54;7.50;;;6.60;;
15295;SDS011;7749;49.964;7.890;2023-03-20T01:17:25;6.23;;;5.63;;
15295;SDS011;7749;49.964;7.890;2023-03-20T01:19:53;6.17;;;5.57;;
15295;SDS011;7749;49.964;7.890;2023-03-20T01:22:21;6.60;;;5.90;;
15295;SDS011;7749;49.964;7.890;2023-03-20T01:24:49;6.73;;;6.13;;
15295;SDS011;7749;49.964;7.890;2023-03-20T01:27:17;7.00;;;5.97;;
15295;SDS011;7749;49.964;7.890;2023-03-20T01:29:45;7.00;;;6.40;;
15295;SDS011;7749;49.964;7.890;2023-03-20T01:32:14;7.00;;;5.87;;
15295;SDS011;7749;49.964;7.890;2023-03-20T01:34:44;6.10;;;5.50;;
15295;SDS011;7749;49.964;7.890;2023-03-20T01:37:20;6.73;;;5.90;;
15295;SDS011;7749;49.964;7.890;2023-03-20T01:39:50;6.40;;;5.80;;
15295;SDS011;7749;49.964;7.890;2023-03-20T01:42:18;7.03;;;6.17;;
15295;SDS011;7749;49.964;7.890;2023-03-20T01:44:46;6.47;;;5.63;;
15295;SDS011;7749;49.964;7.890;2023-03-20T01:47:23;7.47;;;5.87;;
15295;SDS011;7749;49.964;7.890;2023-03-20T01:52:50;8.70;;;5.50;;
15295;SDS011;7749;49.964;7.890;2023-03-20T01:55:22;5.80;;;5.20;;
15295;SDS011;7749;49.964;7.890;2023-03-20T01:57:55;6.93;;;4.83;;
15295;SDS011;7749;49.964;7.890;2023-03-20T02:00:25;5.90;;;5.37;;
15295;SDS011;7749;49.964;7.890;2023-03-20T02:02:53;4.40;;;4.00;;
15295;SDS011;7749;49.964;7.890;2023-03-20T02:05:21;6.23;;;4.57;;
15295;SDS011;7749;49.964;7.890;2023-03-20T02:07:53;5.07;;;4.57;;
15295;SDS011;7749;49.964;7.890;2023-03-20T02:10:31;4.70;;;3.97;;
15295;SDS011;7749;49.964;7.890;2023-03-20T02:13:00;5.87;;;4.43;;
15295;SDS011;7749;49.964;7.890;2023-03-20T02:15:30;5.97;;;5.30;;
15295;SDS011;7749;49.964;7.890;2023-03-20T02:17:58;5.53;;;4.50;;
15295;SDS011;7749;49.964;7.890;2023-03-20T02:20:49;5.47;;;4.27;;
15295;SDS011;7749;49.964;7.890;2023-03-20T02:32:06;8.20;;;6.10;;
15295;SDS011;7749;49.964;7.890;2023-03-20T02:43:57;7.67;;;4.80;;
15295;SDS011;7749;49.964;7.890;2023-03-20T02:54:48;7.57;;;5.90;;
15295;SDS011;7749;49.964;7.890;2023-03-20T02:57:48;8.57;;;6.73;;
15295;SDS011;7749;49.964;7.890;2023-03-20T03:00:39;12.17;;;8.73;;
15295;SDS011;7749;49.964;7.890;2023-03-20T03:03:16;14.57;;;10.00;;
15295;SDS011;7749;49.964;7.890;2023-03-20T03:06:04;12.90;;;10.20;;
15295;SDS011;7749;49.964;7.890;2023-03-20T03:08:38;13.40;;;9.87;;
15295;SDS011;7749;49.964;7.890;2023-03-20T03:11:10;17.23;;;12.30;;
15295;SDS011;7749;49.964;7.890;2023-03-20T03:13:43;20.33;;;14.20;;
15295;SDS011;7749;49.964;7.890;2023-03-20T03:16:21;13.97;;;9.93;;
15295;SDS011;7749;49.964;7.890;2023-03-20T03:21:50;20.77;;;15.50;;
15295;SDS011;7749;49.964;7.890;2023-03-20T03:24:22;19.80;;;13.07;;
15295;SDS011;7749;49.964;7.890;2023-03-20T03:29:57;27.67;;;18.90;;
15295;SDS011;7749;49.964;7.890;2023-03-20T03:32:32;26.73;;;19.47;;
15295;SDS011;7749;49.964;7.890;2023-03-20T03:35:02;30.17;;;21.63;;
15295;SDS011;7749;49.964;7.890;2023-03-20T03:40:19;29.93;;;20.20;;
15295;SDS011;7749;49.964;7.890;2023-03-20T03:45:46;41.00;;;25.70;;
15295;SDS011;7749;49.964;7.890;2023-03-20T03:48:20;40.10;;;25.57;;
15295;SDS011;7749;49.964;7.890;2023-03-20T03:50:53;44.67;;;28.73;;
15295;SDS011;7749;49.964;7.890;2023-03-20T03:53:28;47.23;;;30.10;;
15295;SDS011;7749;49.964;7.890;2023-03-20T03:56:00;50.00;;;31.43;;
15295;SDS011;7749;49.964;7.890;2023-03-20T03:58:35;48.13;;;32.23;;
15295;SDS011;7749;49.964;7.890;2023-03-20T04:01:14;48.93;;;32.80;;
15295;SDS011;7749;49.964;7.890;2023-03-20T04:03:51;52.93;;;34.77;;
15295;SDS011;7749;49.964;7.890;2023-03-20T04:06:22;52.30;;;33.60;;
15295;SDS011;7749;49.964;7.890;2023-03-20T04:08:52;51.90;;;35.67;;
15295;SDS011;7749;49.964;7.890;2023-03-20T04:11:20;51.13;;;34.70;;
15295;SDS011;7749;49.964;7.890;2023-03-20T04:13:50;54.67;;;35.67;;
15295;SDS011;7749;49.964;7.890;2023-03-20T04:16:19;53.73;;;36.03;;
15295;SDS011;7749;49.964;7.890;2023-03-20T04:18:49;56.77;;;36.47;;
15295;SDS011;7749;49.964;7.890;2023-03-20T04:21:18;55.37;;;35.70;;
15295;SDS011;7749;49.964;7.890;2023-03-20T04:23:46;62.27;;;39.63;;
15295;SDS011;7749;49.964;7.890;2023-03-20T04:26:13;57.87;;;36.13;;
15295;SDS011;7749;49.964;7.890;2023-03-20T04:28:41;61.30;;;38.30;;
15295;SDS011;7749;49.964;7.890;2023-03-20T04:31:09;55.93;;;35.93;;
15295;SDS011;7749;49.964;7.890;2023-03-20T04:33:37;56.37;;;37.20;;
15295;SDS011;7749;49.964;7.890;2023-03-20T04:36:05;54.93;;;36.13;;
15295;SDS011;7749;49.964;7.890;2023-03-20T04:38:33;55.60;;;37.00;;
15295;SDS011;7749;49.964;7.890;2023-03-20T04:41:01;56.40;;;35.30;;
15295;SDS011;7749;49.964;7.890;2023-03-20T04:43:29;53.83;;;35.83;;
15295;SDS011;7749;49.964;7.890;2023-03-20T04:45:57;54.33;;;36.50;;
15295;SDS011;7749;49.964;7.890;2023-03-20T04:48:25;54.33;;;36.57;;
15295;SDS011;7749;49.964;7.890;2023-03-20T04:50:54;53.33;;;36.67;;
15295;SDS011;7749;49.964;7.890;2023-03-20T04:53:27;56.87;;;36.73;;
15295;SDS011;7749;49.964;7.890;2023-03-20T04:55:55;51.17;;;34.53;;
15295;SDS011;7749;49.964;7.890;2023-03-20T04:58:22;51.23;;;34.10;;
15295;SDS011;7749;49.964;7.890;2023-03-20T05:00:50;54.83;;;36.70;;
15295;SDS011;7749;49.964;7.890;2023-03-20T05:03:18;52.03;;;35.23;;
15295;SDS011;7749;49.964;7.890;2023-03-20T05:05:49;50.10;;;34.93;;
15295;SDS011;7749;49.964;7.890;2023-03-20T05:08:17;54.47;;;36.43;;
15295;SDS011;7749;49.964;7.890;2023-03-20T05:10:45;57.00;;;36.73;;
15295;SDS011;7749;49.964;7.890;2023-03-20T05:13:13;51.13;;;34.83;;
15295;SDS011;7749;49.964;7.890;2023-03-20T05:15:41;49.30;;;34.23;;
15295;SDS011;7749;49.964;7.890;2023-03-20T05:18:12;53.67;;;35.73;;
15295;SDS011;7749;49.964;7.890;2023-03-20T05:20:39;47.60;;;33.30;;
15295;SDS011;7749;49.964;7.890;2023-03-20T05:23:07;46.90;;;33.43;;
15295;SDS011;7749;49.964;7.890;2023-03-20T05:25:34;51.70;;;34.13;;
15295;SDS011;7749;49.964;7.890;2023-03-20T05:28:02;46.77;;;32.00;;
15295;SDS011;7749;49.964;7.890;2023-03-20T05:30:32;49.83;;;32.97;;
15295;SDS011;7749;49.964;7.890;2023-03-20T05:32:59;49.27;;;32.53;;
15295;SDS011;7749;49.964;7.890;2023-03-20T05:35:27;50.07;;;34.10;;
15295;SDS011;7749;49.964;7.890;2023-03-20T05:37:55;50.93;;;34.00;;
15295;SDS011;7749;49.964;7.890;2023-03-20T05:40:23;51.23;;;34.40;;
15295;SDS011;7749;49.964;7.890;2023-03-20T05:42:51;49.57;;;32.90;;
15295;SDS011;7749;49.964;7.890;2023-03-20T05:45:19;48.77;;;34.30;;
15295;SDS011;7749;49.964;7.890;2023-03-20T05:47:46;51.37;;;33.90;;
15295;SDS011;7749;49.964;7.890;2023-03-20T05:50:14;51.23;;;34.00;;
15295;SDS011;7749;49.964;7.890;2023-03-20T05:52:45;53.17;;;33.87;;
15295;SDS011;7749;49.964;7.890;2023-03-20T05:55:14;53.83;;;34.40;;
15295;SDS011;7749;49.964;7.890;2023-03-20T05:57:42;54.87;;;34.90;;
15295;SDS011;7749;49.964;7.890;2023-03-20T06:00:10;51.60;;;35.33;;
15295;SDS011;7749;49.964;7.890;2023-03-20T06:02:38;54.60;;;35.93;;
15295;SDS011;7749;49.964;7.890;2023-03-20T06:05:06;54.83;;;34.30;;
15295;SDS011;7749;49.964;7.890;2023-03-20T06:07:33;48.40;;;33.23;;
15295;SDS011;7749;49.964;7.890;2023-03-20T06:10:01;47.87;;;32.37;;
15295;SDS011;7749;49.964;7.890;2023-03-20T06:12:29;53.43;;;33.53;;
15295;SDS011;7749;49.964;7.890;2023-03-20T06:14:57;51.13;;;33.13;;
15295;SDS011;7749;49.964;7.890;2023-03-20T06:17:24;56.17;;;34.57;;
15295;SDS011;7749;49.964;7.890;2023-03-20T06:19:52;49.80;;;33.27;;
15295;SDS011;7749;49.964;7.890;2023-03-20T06:22:20;53.53;;;34.30;;
15295;SDS011;7749;49.964;7.890;2023-03-20T06:24:47;50.90;;;34.17;;
15295;SDS011;7749;49.964;7.890;2023-03-20T06:27:16;56.93;;;36.90;;
15295;SDS011;7749;49.964;7.890;2023-03-20T06:29:47;59.20;;;35.87;;
15295;SDS011;7749;49.964;7.890;2023-03-20T06:32:15;53.03;;;34.63;;
15295;SDS011;7749;49.964;7.890;2023-03-20T06:34:46;55.27;;;35.40;;
15295;SDS011;7749;49.964;7.890;2023-03-20T06:37:14;57.20;;;36.30;;
15295;SDS011;7749;49.964;7.890;2023-03-20T06:39:42;54.83;;;33.70;;
15295;SDS011;7749;49.964;7.890;2023-03-20T06:42:10;54.23;;;34.43;;
15295;SDS011;7749;49.964;7.890;2023-03-20T06:44:42;53.03;;;35.33;;
15295;SDS011;7749;49.964;7.890;2023-03-20T06:47:10;52.43;;;34.73;;
15295;SDS011;7749;49.964;7.890;2023-03-20T06:49:38;54.37;;;35.07;;
15295;SDS011;7749;49.964;7.890;2023-03-20T06:52:05;50.67;;;32.10;;
15295;SDS011;7749;49.964;7.890;2023-03-20T06:54:34;51.37;;;33.20;;
15295;SDS011;7749;49.964;7.890;2023-03-20T06:57:01;53.03;;;33.33;;
15295;SDS011;7749;49.964;7.890;2023-03-20T06:59:32;50.63;;;34.43;;
15295;SDS011;7749;49.964;7.890;2023-03-20T07:02:03;50.00;;;32.83;;
15295;SDS011;7749;49.964;7.890;2023-03-20T07:04:33;51.93;;;34.30;;
15295;SDS011;7749;49.964;7.890;2023-03-20T07:07:01;49.77;;;32.37;;
15295;SDS011;7749;49.964;7.890;2023-03-20T07:09:29;51.50;;;33.10;;
15295;SDS011;7749;49.964;7.890;2023-03-20T07:11:57;45.80;;;32.67;;
15295;SDS011;7749;49.964;7.890;2023-03-20T07:14:25;55.87;;;34.97;;
15295;SDS011;7749;49.964;7.890;2023-03-20T07:16:53;45.30;;;32.60;;
15295;SDS011;7749;49.964;7.890;2023-03-20T07:19:24;49.53;;;32.00;;
15295;SDS011;7749;49.964;7.890;2023-03-20T07:21:53;55.27;;;34.80;;
15295;SDS011;7749;49.964;7.890;2023-03-20T07:24:24;47.97;;;31.70;;
15295;SDS011;7749;49.964;7.890;2023-03-20T07:26:58;47.80;;;31.97;;
15295;SDS011;7749;49.964;7.890;2023-03-20T07:29:26;47.40;;;32.93;;
15295;SDS011;7749;49.964;7.890;2023-03-20T07:31:53;49.13;;;32.50;;
15295;SDS011;7749;49.964;7.890;2023-03-20T07:34:21;47.77;;;32.00;;
15295;SDS011;7749;49.964;7.890;2023-03-20T07:36:49;43.83;;;30.30;;
15295;SDS011;7749;49.964;7.890;2023-03-20T07:39:17;44.80;;;30.17;;
15295;SDS011;7749;49.964;7.890;2023-03-20T07:41:47;43.33;;;29.90;;
15295;SDS011;7749;49.964;7.890;2023-03-20T07:44:15;43.20;;;31.03;;
15295;SDS011;7749;49.964;7.890;2023-03-20T07:46:48;43.60;;;30.80;;
15295;SDS011;7749;49.964;7.890;2023-03-20T07:49:17;40.53;;;28.73;;
15295;SDS011;7749;49.964;7.890;2023-03-20T07:52:05;39.18;;;25.78;;
15295;SDS011;7749;49.964;7.890;2023-03-20T07:54:43;41.55;;;28.50;;
15295;SDS011;7749;49.964;7.890;2023-03-20T07:57:26;40.36;;;26.94;;
15295;SDS011;7749;49.964;7.890;2023-03-20T07:59:55;45.73;;;30.97;;
15295;SDS011;7749;49.964;7.890;2023-03-20T08:02:23;39.87;;;28.33;;
15295;SDS011;7749;49.964;7.890;2023-03-20T08:04:50;38.03;;;28.87;;
15295;SDS011;7749;49.964;7.890;2023-03-20T08:07:18;39.23;;;27.87;;
15295;SDS011;7749;49.964;7.890;2023-03-20T08:09:46;36.33;;;26.50;;
15295;SDS011;7749;49.964;7.890;2023-03-20T08:12:14;36.73;;;26.57;;
15295;SDS011;7749;49.964;7.890;2023-03-20T08:14:43;33.17;;;25.67;;
15295;SDS011;7749;49.964;7.890;2023-03-20T08:17:10;36.53;;;25.90;;
15295;SDS011;7749;49.964;7.890;2023-03-20T08:19:48;35.77;;;25.70;;
15295;SDS011;7749;49.964;7.890;2023-03-20T08:22:15;34.60;;;26.37;;
15295;SDS011;7749;49.964;7.890;2023-03-20T08:24:43;34.23;;;25.37;;
15295;SDS011;7749;49.964;7.890;2023-03-20T08:27:13;35.50;;;26.17;;
15295;SDS011;7749;49.964;7.890;2023-03-20T08:29:41;33.17;;;25.63;;
15295;SDS011;7749;49.964;7.890;2023-03-20T08:32:08;36.27;;;26.40;;
15295;SDS011;7749;49.964;7.890;2023-03-20T08:34:36;34.57;;;25.73;;
15295;SDS011;7749;49.964;7.890;2023-03-20T08:37:04;35.07;;;25.27;;
15295;SDS011;7749;49.964;7.890;2023-03-20T08:39:35;34.10;;;25.67;;
15295;SDS011;7749;49.964;7.890;2023-03-20T08:42:05;36.83;;;25.53;;
15295;SDS011;7749;49.964;7.890;2023-03-20T08:44:33;34.30;;;24.97;;
15295;SDS011;7749;49.964;7.890;2023-03-20T08:47:01;35.77;;;25.67;;
15295;SDS011;7749;49.964;7.890;2023-03-20T08:49:29;39.17;;;26.77;;
15295;SDS011;7749;49.964;7.890;2023-03-20T08:51:58;30.97;;;24.07;;
15295;SDS011;7749;49.964;7.890;2023-03-20T08:54:26;29.70;;;23.47;;
15295;SDS011;7749;49.964;7.890;2023-03-20T08:56:54;27.93;;;21.43;;
15295;SDS011;7749;49.964;7.890;2023-03-20T08:59:21;28.70;;;22.10;;
15295;SDS011;7749;49.964;7.890;2023-03-20T09:01:49;28.80;;;20.80;;
15295;SDS011;7749;49.964;7.890;2023-03-20T09:04:17;29.60;;;22.30;;
15295;SDS011;7749;49.964;7.890;2023-03-20T09:06:45;26.07;;;20.90;;
15295;SDS011;7749;49.964;7.890;2023-03-20T09:09:13;30.27;;;21.87;;
15295;SDS011;7749;49.964;7.890;2023-03-20T09:11:42;30.13;;;21.00;;
15295;SDS011;7749;49.964;7.890;2023-03-20T09:14:09;27.40;;;19.57;;
15295;SDS011;7749;49.964;7.890;2023-03-20T09:16:37;21.90;;;19.10;;
15295;SDS011;7749;49.964;7.890;2023-03-20T09:19:05;22.90;;;17.87;;
15295;SDS011;7749;49.964;7.890;2023-03-20T09:21:33;24.40;;;18.57;;
15295;SDS011;7749;49.964;7.890;2023-03-20T09:24:02;23.03;;;18.90;;
15295;SDS011;7749;49.964;7.890;2023-03-20T09:26:30;23.37;;;18.03;;
15295;SDS011;7749;49.964;7.890;2023-03-20T09:28:57;22.90;;;17.57;;
15295;SDS011;7749;49.964;7.890;2023-03-20T09:31:25;20.03;;;16.77;;
15295;SDS011;7749;49.964;7.890;2023-03-20T09:33:53;11.17;;;8.23;;
15295;SDS011;7749;49.964;7.890;2023-03-20T09:36:21;7.87;;;6.70;;
15295;SDS011;7749;49.964;7.890;2023-03-20T09:38:49;8.70;;;7.37;;
15295;SDS011;7749;49.964;7.890;2023-03-20T09:41:20;8.90;;;7.40;;
15295;SDS011;7749;49.964;7.890;2023-03-20T09:43:59;12.63;;;9.17;;
15295;SDS011;7749;49.964;7.890;2023-03-20T09:49:11;11.53;;;8.93;;
15295;SDS011;7749;49.964;7.890;2023-03-20T09:51:53;10.67;;;8.27;;
15295;SDS011;7749;49.964;7.890;2023-03-20T09:54:47;8.43;;;6.57;;
15295;SDS011;7749;49.964;7.890;2023-03-20T09:57:28;7.83;;;6.43;;
15295;SDS011;7749;49.964;7.890;2023-03-20T10:00:09;8.67;;;6.10;;
15295;SDS011;7749;49.964;7.890;2023-03-20T10:02:44;11.00;;;7.33;;
15295;SDS011;7749;49.964;7.890;2023-03-20T10:05:27;7.23;;;6.37;;
15295;SDS011;7749;49.964;7.890;2023-03-20T10:07:58;10.17;;;8.47;;
15295;SDS011;7749;49.964;7.890;2023-03-20T10:16:50;7.20;;;6.23;;
15295;SDS011;7749;49.964;7.890;2023-03-20T10:21:45;3.97;;;3.53;;
15295;SDS011;7749;49.964;7.890;2023-03-20T10:24:20;5.30;;;4.63;;
15295;SDS011;7749;49.964;7.890;2023-03-20T10:26:56;7.17;;;5.70;;
15295;SDS011;7749;49.964;7.890;2023-03-20T10:29:34;8.20;;;5.00;;
15295;SDS011;7749;49.964;7.890;2023-03-20T10:35:02;7.20;;;4.10;;
15295;SDS011;7749;49.964;7.890;2023-03-20T10:37:38;7.63;;;4.30;;
15295;SDS011;7749;49.964;7.890;2023-03-20T10:40:32;3.90;;;3.50;;
15295;SDS011;7749;49.964;7.890;2023-03-20T10:43:08;5.60;;;3.40;;
15295;SDS011;7749;49.964;7.890;2023-03-20T10:45:39;4.20;;;2.90;;
15295;SDS011;7749;49.964;7.890;2023-03-20T10:48:14;3.80;;;3.20;;
15295;SDS011;7749;49.964;7.890;2023-03-20T10:50:44;3.87;;;3.17;;
15295;SDS011;7749;49.964;7.890;2023-03-20T10:53:40;5.13;;;3.60;;
15295;SDS011;7749;49.964;7.890;2023-03-20T10:56:18;4.20;;;3.60;;
15295;SDS011;7749;49.964;7.890;2023-03-20T10:59:02;4.87;;;3.37;;
15295;SDS011;7749;49.964;7.890;2023-03-20T11:01:34;5.07;;;4.13;;
15295;SDS011;7749;49.964;7.890;2023-03-20T11:04:02;3.53;;;3.22;;
15295;SDS011;7749;49.964;7.890;2023-03-20T11:06:33;4.72;;;3.60;;
15295;SDS011;7749;49.964;7.890;2023-03-20T11:09:21;4.00;;;3.60;;
15295;SDS011;7749;49.964;7.890;2023-03-20T11:11:55;4.15;;;3.75;;
15295;SDS011;7749;49.964;7.890;2023-03-20T11:14:25;5.78;;;3.95;;
15295;SDS011;7749;49.964;7.890;2023-03-20T11:17:02;3.83;;;3.47;;
15295;SDS011;7749;49.964;7.890;2023-03-20T11:19:33;6.97;;;3.50;;
15295;SDS011;7749;49.964;7.890;2023-03-20T11:24:53;3.80;;;2.80;;
15295;SDS011;7749;49.964;7.890;2023-03-20T11:27:28;2.90;;;2.40;;
15295;SDS011;7749;49.964;7.890;2023-03-20T11:30:03;2.97;;;2.47;;
15295;SDS011;7749;49.964;7.890;2023-03-20T11:37:54;3.58;;;2.70;;
15295;SDS011;7749;49.964;7.890;2023-03-20T11:40:34;3.42;;;2.63;;
15295;SDS011;7749;49.964;7.890;2023-03-20T11:43:04;3.38;;;2.75;;
15295;SDS011;7749;49.964;7.890;2023-03-20T11:45:41;3.45;;;2.67;;
15295;SDS011;7749;49.964;7.890;2023-03-20T11:48:18;4.60;;;2.70;;
15295;SDS011;7749;49.964;7.890;2023-03-20T11:50:55;2.85;;;2.55;;
15295;SDS011;7749;49.964;7.890;2023-03-20T11:56:25;2.85;;;2.50;;
15295;SDS011;7749;49.964;7.890;2023-03-20T12:01:38;3.67;;;2.80;;
15295;SDS011;7749;49.964;7.890;2023-03-20T12:12:35;3.28;;;2.85;;
15295;SDS011;7749;49.964;7.890;2023-03-20T12:17:45;3.67;;;2.47;;
15295;SDS011;7749;49.964;7.890;2023-03-20T12:25:44;4.50;;;2.50;;
15295;SDS011;7749;49.964;7.890;2023-03-20T12:28:24;4.15;;;3.13;;
15295;SDS011;7749;49.964;7.890;2023-03-20T12:33:59;4.63;;;3.20;;
15295;SDS011;7749;49.964;7.890;2023-03-20T12:36:45;2.90;;;2.58;;
15295;SDS011;7749;49.964;7.890;2023-03-20T12:39:18;4.03;;;2.90;;
15295;SDS011;7749;49.964;7.890;2023-03-20T12:47:12;4.88;;;3.38;;
15295;SDS011;7749;49.964;7.890;2023-03-20T13:00:23;4.55;;;3.00;;
15295;SDS011;7749;49.964;7.890;2023-03-20T13:11:08;4.22;;;3.40;;
15295;SDS011;7749;49.964;7.890;2023-03-20T13:13:56;4.80;;;3.15;;
15295;SDS011;7749;49.964;7.890;2023-03-20T13:21:46;3.13;;;2.28;;
15295;SDS011;7749;49.964;7.890;2023-03-20T13:29:59;3.42;;;2.70;;
15295;SDS011;7749;49.964;7.890;2023-03-20T13:35:37;3.13;;;2.43;;
15295;SDS011;7749;49.964;7.890;2023-03-20T13:38:21;2.70;;;2.40;;
15295;SDS011;7749;49.964;7.890;2023-03-20T13:40:58;3.93;;;2.60;;
15295;SDS011;7749;49.964;7.890;2023-03-20T13:46:09;3.33;;;2.47;;
15295;SDS011;7749;49.964;7.890;2023-03-20T13:48:50;2.40;;;2.20;;
15295;SDS011;7749;49.964;7.890;2023-03-20T14:00:00;3.00;;;1.70;;
15295;SDS011;7749;49.964;7.890;2023-03-20T14:05:21;3.27;;;2.23;;
15295;SDS011;7749;49.964;7.890;2023-03-20T14:07:53;4.73;;;2.20;;
15295;SDS011;7749;49.964;7.890;2023-03-20T14:13:00;3.37;;;2.60;;
15295;SDS011;7749;49.964;7.890;2023-03-20T14:15:39;3.33;;;2.60;;
15295;SDS011;7749;49.964;7.890;2023-03-20T14:18:22;4.10;;;2.70;;
15295;SDS011;7749;49.964;7.890;2023-03-20T14:20:58;4.33;;;3.20;;
15295;SDS011;7749;49.964;7.890;2023-03-20T14:26:04;3.27;;;2.70;;
15295;SDS011;7749;49.964;7.890;2023-03-20T14:28:45;6.60;;;3.10;;
15295;SDS011;7749;49.964;7.890;2023-03-20T14:31:24;4.30;;;2.50;;
15295;SDS011;7749;49.964;7.890;2023-03-20T14:50:22;4.03;;;2.70;;
15295;SDS011;7749;49.964;7.890;2023-03-20T14:59:06;3.07;;;2.30;;
15295;SDS011;7749;49.964;7.890;2023-03-20T15:01:26;2.33;;;2.10;;
15295;SDS011;7749;49.964;7.890;2023-03-20T15:04:08;3.17;;;2.57;;
15295;SDS011;7749;49.964;7.890;2023-03-20T15:06:52;3.30;;;2.40;;
15295;SDS011;7749;49.964;7.890;2023-03-20T15:09:26;5.63;;;3.50;;
15295;SDS011;7749;49.964;7.890;2023-03-20T15:11:56;3.77;;;2.73;;
15295;SDS011;7749;49.964;7.890;2023-03-20T15:14:36;4.83;;;2.70;;
15295;SDS011;7749;49.964;7.890;2023-03-20T15:17:20;3.33;;;2.70;;
15295;SDS011;7749;49.964;7.890;2023-03-20T15:19:49;5.20;;;2.73;;
15295;SDS011;7749;49.964;7.890;2023-03-20T15:22:24;10.77;;;2.97;;
15295;SDS011;7749;49.964;7.890;2023-03-20T15:24:53;4.57;;;2.60;;
15295;SDS011;7749;49.964;7.890;2023-03-20T15:27:24;4.10;;;2.70;;
15295;SDS011;7749;49.964;7.890;2023-03-20T15:29:55;5.43;;;2.70;;
15295;SDS011;7749;49.964;7.890;2023-03-20T15:32:26;3.67;;;2.60;;
15295;SDS011;7749;49.964;7.890;2023-03-20T15:34:54;3.97;;;2.43;;
15295;SDS011;7749;49.964;7.890;2023-03-20T15:37:22;3.43;;;2.40;;
15295;SDS011;7749;49.964;7.890;2023-03-20T15:39:51;5.30;;;2.70;;
15295;SDS011;7749;49.964;7.890;2023-03-20T15:42:23;5.80;;;3.67;;
15295;SDS011;7749;49.964;7.890;2023-03-20T15:44:52;5.33;;;2.73;;
15295;SDS011;7749;49.964;7.890;2023-03-20T15:47:22;4.47;;;2.47;;
15295;SDS011;7749;49.964;7.890;2023-03-20T15:49:57;4.47;;;2.50;;
15295;SDS011;7749;49.964;7.890;2023-03-20T15:52:39;5.47;;;3.03;;
15295;SDS011;7749;49.964;7.890;2023-03-20T15:55:16;5.77;;;2.77;;
15295;SDS011;7749;49.964;7.890;2023-03-20T15:57:46;6.37;;;3.10;;
15295;SDS011;7749;49.964;7.890;2023-03-20T16:00:19;3.57;;;2.47;;
15295;SDS011;7749;49.964;7.890;2023-03-20T16:03:17;5.10;;;2.40;;
15295;SDS011;7749;49.964;7.890;2023-03-20T16:05:48;3.50;;;2.47;;
15295;SDS011;7749;49.964;7.890;2023-03-20T16:13:26;4.77;;;3.10;;
15295;SDS011;7749;49.964;7.890;2023-03-20T16:15:59;5.43;;;3.00;;
15295;SDS011;7749;49.964;7.890;2023-03-20T16:18:29;5.97;;;3.10;;
15295;SDS011;7749;49.964;7.890;2023-03-20T16:21:04;3.43;;;2.93;;
15295;SDS011;7749;49.964;7.890;2023-03-20T16:23:40;6.60;;;3.30;;
15295;SDS011;7749;49.964;7.890;2023-03-20T16:26:13;4.93;;;3.10;;
15295;SDS011;7749;49.964;7.890;2023-03-20T16:28:47;5.23;;;2.97;;
15295;SDS011;7749;49.964;7.890;2023-03-20T16:31:19;7.33;;;3.77;;
15295;SDS011;7749;49.964;7.890;2023-03-20T16:34:07;4.70;;;2.73;;
15295;SDS011;7749;49.964;7.890;2023-03-20T16:36:51;3.97;;;2.70;;
15295;SDS011;7749;49.964;7.890;2023-03-20T16:39:25;3.50;;;2.47;;
15295;SDS011;7749;49.964;7.890;2023-03-20T16:42:42;4.93;;;2.93;;
15295;SDS011;7749;49.964;7.890;2023-03-20T16:44:52;5.33;;;2.80;;
15295;SDS011;7749;49.964;7.890;2023-03-20T16:47:35;4.73;;;2.83;;
15295;SDS011;7749;49.964;7.890;2023-03-20T16:50:12;5.07;;;3.03;;
15295;SDS011;7749;49.964;7.890;2023-03-20T16:52:50;5.23;;;2.50;;
15295;SDS011;7749;49.964;7.890;2023-03-20T16:55:25;5.10;;;2.30;;
15295;SDS011;7749;49.964;7.890;2023-03-20T16:57:57;4.07;;;2.53;;
15295;SDS011;7749;49.964;7.890;2023-03-20T17:00:31;4.77;;;2.30;;
15295;SDS011;7749;49.964;7.890;2023-03-20T17:03:14;4.73;;;2.30;;
15295;SDS011;7749;49.964;7.890;2023-03-20T17:05:48;4.47;;;2.60;;
15295;SDS011;7749;49.964;7.890;2023-03-20T17:11:28;7.10;;;2.40;;
15295;SDS011;7749;49.964;7.890;2023-03-20T17:14:03;4.30;;;1.97;;
15295;SDS011;7749;49.964;7.890;2023-03-20T17:16:31;4.60;;;1.90;;
15295;SDS011;7749;49.964;7.890;2023-03-20T17:19:01;3.83;;;1.80;;
15295;SDS011;7749;49.964;7.890;2023-03-20T17:21:33;4.37;;;1.90;;
15295;SDS011;7749;49.964;7.890;2023-03-20T17:24:01;2.90;;;1.47;;
15295;SDS011;7749;49.964;7.890;2023-03-20T17:26:29;4.77;;;1.90;;
15295;SDS011;7749;49.964;7.890;2023-03-20T17:28:57;4.87;;;2.20;;
15295;SDS011;7749;49.964;7.890;2023-03-20T17:31:25;4.80;;;2.10;;
15295;SDS011;7749;49.964;7.890;2023-03-20T17:33:53;4.53;;;2.20;;
15295;SDS011;7749;49.964;7.890;2023-03-20T17:36:27;6.20;;;2.63;;
15295;SDS011;7749;49.964;7.890;2023-03-20T17:38:58;3.63;;;2.30;;
15295;SDS011;7749;49.964;7.890;2023-03-20T17:41:26;5.43;;;2.53;;
15295;SDS011;7749;49.964;7.890;2023-03-20T17:43:54;3.33;;;2.20;;
15295;SDS011;7749;49.964;7.890;2023-03-20T17:48:55;5.63;;;2.10;;
15295;SDS011;7749;49.964;7.890;2023-03-20T17:51:25;6.23;;;2.70;;
15295;SDS011;7749;49.964;7.890;2023-03-20T17:53:54;3.77;;;2.40;;
15295;SDS011;7749;49.964;7.890;2023-03-20T17:56:25;5.23;;;2.23;;
15295;SDS011;7749;49.964;7.890;2023-03-20T17:58:58;7.23;;;4.30;;
15295;SDS011;7749;49.964;7.890;2023-03-20T18:01:27;5.07;;;2.47;;
15295;SDS011;7749;49.964;7.890;2023-03-20T18:03:58;3.80;;;1.87;;
15295;SDS011;7749;49.964;7.890;2023-03-20T18:06:30;4.77;;;2.00;;
15295;SDS011;7749;49.964;7.890;2023-03-20T18:08:59;3.37;;;1.60;;
15295;SDS011;7749;49.964;7.890;2023-03-20T18:11:30;3.70;;;1.90;;
15295;SDS011;7749;49.964;7.890;2023-03-20T18:14:05;4.40;;;2.40;;
15295;SDS011;7749;49.964;7.890;2023-03-20T18:16:34;4.23;;;1.90;;
15295;SDS011;7749;49.964;7.890;2023-03-20T18:19:02;4.00;;;2.00;;